Time;durP1;ratioP1;P1;durP2;ratioP2;P2;SDS_P1;SDS_P2;PMS_P1;PMS_P2;Temp;Humidity;BMP_temperature;BMP_pressure;BME280_temperature;BME280_humidity;BME280_pressure;Samples;Min_cycle;Max_cycle;Signal;HPM_P1;HPM_P2
2021/03/28 00:00:03;;;;;;;5.55;1.60;;;6.70;72.40;;;;;;2082345;28;20052;-82
2021/03/28 00:01:07;;;;;;;4.53;1.50;;;6.60;73.00;;;;;;2085792;28;20024;-83
2021/03/28 00:02:28;;;;;;;5.85;1.48;;;6.60;72.40;;;;;;2075835;28;20098;-82
2021/03/28 00:03:40;;;;;;;4.47;1.63;;;6.70;72.40;;;;;;2078761;28;20034;-83
2021/03/28 00:05:02;;;;;;;4.68;1.30;;;6.70;72.40;;;;;;2081874;28;20017;-82
2021/03/28 00:06:24;;;;;;;5.05;1.65;;;6.60;72.40;;;;;;2089133;28;20453;-83
2021/03/28 00:07:49;;;;;;;3.45;1.33;;;6.60;72.30;;;;;;2084323;28;20025;-83
2021/03/28 00:09:13;;;;;;;5.50;1.63;;;6.70;72.40;;;;;;2090299;28;20390;-82
2021/03/28 00:10:29;;;;;;;7.50;1.70;;;6.60;72.30;;;;;;2082431;28;20068;-82
2021/03/28 00:11:30;;;;;;;5.38;1.73;;;6.70;72.40;;;;;;2076649;28;20224;-83
2021/03/28 00:12:36;;;;;;;5.10;1.75;;;6.70;72.40;;;;;;2080344;28;20033;-83
2021/03/28 00:13:53;;;;;;;4.10;1.30;;;6.60;72.40;;;;;;2085071;28;20033;-83
2021/03/28 00:15:17;;;;;;;4.63;1.40;;;6.70;72.50;;;;;;2088435;28;20029;-83
2021/03/28 00:16:22;;;;;;;3.58;1.30;;;6.70;72.60;;;;;;2081207;28;20040;-82
2021/03/28 00:17:25;;;;;;;4.80;1.92;;;6.60;72.60;;;;;;2082150;28;20480;-83
2021/03/28 00:18:34;;;;;;;3.60;1.33;;;6.60;72.70;;;;;;2074787;28;20120;-82
2021/03/28 00:19:36;;;;;;;5.60;1.70;;;6.60;72.80;;;;;;2082932;28;20033;-83
2021/03/28 00:20:39;;;;;;;3.63;1.23;;;6.60;72.80;;;;;;2082079;28;20090;-83
2021/03/28 00:21:58;;;;;;;4.65;1.48;;;6.60;72.90;;;;;;2066110;28;20027;-83
2021/03/28 00:23:05;;;;;;;5.47;1.70;;;6.60;72.90;;;;;;2074757;28;20462;-82
2021/03/28 00:24:11;;;;;;;4.35;1.50;;;6.60;73.00;;;;;;2089762;28;20025;-83
2021/03/28 00:25:18;;;;;;;4.20;1.70;;;6.60;73.00;;;;;;2081191;28;21749;-82
2021/03/28 00:26:25;;;;;;;5.22;1.58;;;6.60;73.00;;;;;;2076524;28;20072;-83
2021/03/28 00:27:36;;;;;;;4.47;1.45;;;6.60;73.10;;;;;;2086591;28;20041;-82
2021/03/28 00:28:47;;;;;;;3.95;1.30;;;6.60;73.10;;;;;;2090433;28;20442;-83
2021/03/28 00:29:55;;;;;;;5.22;1.77;;;6.60;73.10;;;;;;2083070;28;20014;-82
2021/03/28 00:31:18;;;;;;;4.05;1.30;;;6.60;73.10;;;;;;2087931;28;20028;-82
2021/03/28 00:32:39;;;;;;;5.82;1.90;;;6.60;73.20;;;;;;2090131;28;20017;-83
2021/03/28 00:33:43;;;;;;;4.93;1.80;;;6.60;73.20;;;;;;2078813;28;20029;-82
2021/03/28 00:34:48;;;;;;;5.05;1.67;;;6.60;73.20;;;;;;2085582;28;20410;-82
2021/03/28 00:35:59;;;;;;;4.30;1.40;;;6.60;73.20;;;;;;2083760;28;20550;-83
2021/03/28 00:37:01;;;;;;;;;;;6.60;73.20;;;;;;2090797;28;20021;-83
2021/03/28 00:38:29;;;;;;;5.80;1.55;;;6.60;73.20;;;;;;2090394;28;20015;-83
2021/03/28 00:39:55;;;;;;;3.40;1.27;;;6.60;73.20;;;;;;2088115;28;20395;-82
2021/03/28 00:41:19;;;;;;;4.60;1.40;;;6.60;73.30;;;;;;2083260;28;20036;-82
2021/03/28 00:42:32;;;;;;;4.53;1.20;;;6.60;73.30;;;;;;2076709;28;20033;-83
2021/03/28 00:43:43;;;;;;;3.13;1.20;;;6.60;73.40;;;;;;2089260;28;20037;-83
2021/03/28 00:44:51;;;;;;;3.92;1.60;;;6.60;74.00;;;;;;2090982;28;20174;-83
2021/03/28 00:45:57;;;;;;;4.60;1.45;;;6.50;73.40;;;;;;2082779;28;20067;-82
2021/03/28 00:47:01;;;;;;;5.28;1.38;;;6.50;73.50;;;;;;2084217;28;20022;-82
2021/03/28 00:48:15;;;;;;;3.58;1.35;;;6.60;73.60;;;;;;2074100;28;20125;-83
2021/03/28 00:49:28;;;;;;;4.10;1.40;;;6.50;73.60;;;;;;2074960;28;20033;-83
2021/03/28 00:50:35;;;;;;;4.32;1.50;;;6.50;73.60;;;;;;2090563;28;20106;-83
2021/03/28 00:51:46;;;;;;;4.28;1.50;;;6.50;73.70;;;;;;2083466;28;20025;-83
2021/03/28 00:52:57;;;;;;;5.28;1.45;;;6.50;73.70;;;;;;2087970;28;20033;-82
2021/03/28 00:54:10;;;;;;;5.07;1.45;;;6.50;73.70;;;;;;2081725;28;20026;-82
2021/03/28 00:55:21;;;;;;;4.93;1.60;;;6.50;73.70;;;;;;2081634;28;20028;-82
2021/03/28 00:56:26;;;;;;;5.55;1.30;;;6.50;73.80;;;;;;2082127;28;20234;-82
2021/03/28 00:57:37;;;;;;;5.32;1.95;;;6.50;73.80;;;;;;2086592;28;20033;-83
2021/03/28 00:58:43;;;;;;;;;;;6.50;73.80;;;;;;2083084;28;20120;-82
2021/03/28 00:59:56;;;;;;;6.65;1.60;;;6.50;73.80;;;;;;2081908;28;20007;-83
2021/03/28 01:01:17;;;;;;;6.38;1.55;;;6.50;73.70;;;;;;2082914;28;20020;-83
2021/03/28 01:02:32;;;;;;;6.90;1.83;;;6.50;73.70;;;;;;2089009;28;20112;-83
2021/03/28 01:03:37;;;;;;;3.88;1.70;;;6.50;73.70;;;;;;2085546;28;20099;-82
2021/03/28 01:05:00;;;;;;;4.47;1.30;;;6.60;73.80;;;;;;2079740;28;21848;-81
2021/03/28 01:06:14;;;;;;;7.43;1.83;;;6.60;73.80;;;;;;2081808;28;20030;-82
2021/03/28 01:07:24;;;;;;;5.93;1.88;;;6.60;73.90;;;;;;2082217;28;20029;-83
2021/03/28 01:08:36;;;;;;;6.40;2.10;;;6.60;73.90;;;;;;2077015;28;20033;-81
2021/03/28 01:10:15;;;;;;;4.22;1.50;;;6.60;73.90;;;;;;2086651;28;20023;-82
2021/03/28 01:11:42;;;;;;;5.60;1.77;;;6.60;73.90;;;;;;2085717;28;20031;-83
2021/03/28 01:13:10;;;;;;;5.18;1.70;;;6.60;74.00;;;;;;2078413;28;20035;-82
2021/03/28 01:15:20;;;;;;;6.00;1.90;;;6.60;74.00;;;;;;2086184;28;20112;-82
2021/03/28 01:17:03;;;;;;;4.93;1.50;;;6.60;74.00;;;;;;2047122;28;20031;-82
2021/03/28 01:18:20;;;;;;;4.93;1.70;;;6.60;73.90;;;;;;2052982;28;20042;-82
2021/03/28 01:19:38;;;;;;;5.35;1.50;;;6.60;73.90;;;;;;2056551;28;20033;-83
2021/03/28 01:20:51;;;;;;;5.07;1.75;;;6.60;74.00;;;;;;2055745;28;20033;-82
2021/03/28 01:22:32;;;;;;;4.07;1.55;;;6.60;74.00;;;;;;2085392;28;20037;-83
2021/03/28 01:23:38;;;;;;;4.72;1.70;;;6.60;74.00;;;;;;2078748;28;20057;-83
2021/03/28 01:24:43;;;;;;;6.40;1.90;;;6.60;74.00;;;;;;2083350;28;20459;-83
2021/03/28 01:26:08;;;;;;;7.13;1.98;;;6.60;74.10;;;;;;2079783;28;20021;-83
2021/03/28 01:27:24;;;;;;;4.38;1.65;;;6.60;74.20;;;;;;2076109;28;20041;-83
2021/03/28 01:29:05;;;;;;;4.13;1.88;;;6.60;74.20;;;;;;2075350;28;20392;-82
2021/03/28 01:30:16;;;;;;;4.00;1.73;;;6.60;74.30;;;;;;2054572;28;20492;-83
2021/03/28 01:31:32;;;;;;;6.30;1.88;;;6.60;74.30;;;;;;2077394;28;20091;-83
2021/03/28 01:32:43;;;;;;;4.88;1.45;;;6.60;74.30;;;;;;2081565;28;20029;-83
2021/03/28 01:33:50;;;;;;;6.82;1.98;;;6.60;74.40;;;;;;2080144;28;20029;-82
2021/03/28 01:35:13;;;;;;;5.13;1.73;;;6.60;74.40;;;;;;2074534;28;20113;-83
2021/03/28 01:36:32;;;;;;;7.00;2.10;;;6.60;74.60;;;;;;2081539;28;20419;-83
2021/03/28 01:38:09;;;;;;;6.68;1.92;;;6.60;74.70;;;;;;2081476;28;20064;-82
2021/03/28 01:39:22;;;;;;;5.05;1.60;;;6.60;74.70;;;;;;2089869;28;20033;-83
2021/03/28 01:40:40;;;;;;;6.28;2.00;;;6.60;74.80;;;;;;2081723;28;20033;-83
2021/03/28 01:42:03;;;;;;;5.55;2.00;;;6.50;74.80;;;;;;2085820;28;20491;-83
2021/03/28 01:43:06;;;;;;;6.30;2.08;;;6.50;74.90;;;;;;2090416;28;20037;-83
2021/03/28 01:44:23;;;;;;;5.80;1.77;;;6.50;74.90;;;;;;2089215;28;20025;-83
2021/03/28 01:45:49;;;;;;;6.53;1.70;;;6.60;75.00;;;;;;2082288;28;20565;-83
2021/03/28 01:47:10;;;;;;;5.10;2.00;;;6.50;75.00;;;;;;2088527;28;20032;-82
2021/03/28 01:48:24;;;;;;;6.35;1.90;;;6.50;75.10;;;;;;2087998;28;20083;-83
2021/03/28 01:49:44;;;;;;;5.18;1.63;;;6.50;75.20;;;;;;2082200;28;20080;-83
2021/03/28 01:51:04;;;;;;;6.43;1.67;;;6.50;75.20;;;;;;2089346;28;20044;-83
2021/03/28 01:52:23;;;;;;;3.95;1.60;;;6.50;75.20;;;;;;2081451;28;20079;-83
2021/03/28 01:53:35;;;;;;;4.28;1.70;;;6.50;75.30;;;;;;2087952;28;20029;-83
2021/03/28 01:55:02;;;;;;;5.30;1.77;;;6.50;75.30;;;;;;2085334;28;20537;-83
2021/03/28 01:56:12;;;;;;;4.20;1.60;;;6.50;75.40;;;;;;2095279;28;20043;-82
2021/03/28 01:57:31;;;;;;;4.35;1.60;;;6.40;75.30;;;;;;2092607;28;20060;-84
2021/03/28 01:58:47;;;;;;;4.93;1.70;;;6.40;75.40;;;;;;2088119;28;20024;-82
2021/03/28 02:00:05;;;;;;;4.65;1.50;;;6.40;75.50;;;;;;2093120;28;20014;-83
2021/03/28 02:01:06;;;;;;;4.85;1.77;;;6.40;75.50;;;;;;2092459;28;20037;-83
2021/03/28 02:02:21;;;;;;;6.72;1.83;;;6.40;75.60;;;;;;2083059;28;20057;-83
2021/03/28 02:03:51;;;;;;;3.88;1.50;;;6.40;75.90;;;;;;2086125;28;20049;-83
2021/03/28 02:04:57;;;;;;;3.80;1.50;;;6.40;75.70;;;;;;2086705;28;20116;-83
2021/03/28 02:06:26;;;;;;;5.05;1.42;;;6.40;75.70;;;;;;2088989;28;20136;-82
2021/03/28 02:07:45;;;;;;;6.55;1.85;;;6.40;75.80;;;;;;2099764;28;20040;-83
2021/03/28 02:09:06;;;;;;;5.85;1.75;;;6.40;75.80;;;;;;2095163;28;20018;-82
2021/03/28 02:10:22;;;;;;;4.78;1.85;;;6.40;75.90;;;;;;2092137;28;20026;-84
2021/03/28 02:11:56;;;;;;;6.43;1.80;;;6.40;75.90;;;;;;2082579;28;20040;-83
2021/03/28 02:13:31;;;;;;;5.25;1.60;;;6.40;75.90;;;;;;2082553;28;20037;-83
2021/03/28 02:15:16;;;;;;;5.70;1.42;;;6.40;75.90;;;;;;2086256;28;20039;-83
2021/03/28 02:16:28;;;;;;;4.75;1.52;;;6.30;75.80;;;;;;2074761;28;20046;-83
2021/03/28 02:17:54;;;;;;;4.32;1.40;;;6.40;75.90;;;;;;2087132;28;20029;-83
2021/03/28 02:19:17;;;;;;;5.30;1.42;;;6.40;76.00;;;;;;2084018;28;20075;-83
2021/03/28 02:20:29;;;;;;;4.38;1.58;;;6.40;76.00;;;;;;2088304;28;20028;-83
2021/03/28 02:21:57;;;;;;;5.57;1.63;;;6.40;76.00;;;;;;2082312;28;20523;-83
2021/03/28 02:23:10;;;;;;;4.63;1.38;;;6.40;76.00;;;;;;2082664;28;20139;-83
2021/03/28 02:24:44;;;;;;;4.72;1.40;;;6.30;76.00;;;;;;2086596;28;20489;-83
2021/03/28 02:25:56;;;;;;;5.47;1.10;;;6.40;76.00;;;;;;2071190;28;20036;-83
2021/03/28 02:27:08;;;;;;;4.70;1.27;;;6.40;76.10;;;;;;2089708;28;20067;-84
2021/03/28 02:28:28;;;;;;;3.85;1.40;;;6.40;76.10;;;;;;2096183;28;20017;-82
2021/03/28 02:29:44;;;;;;;4.28;1.30;;;6.40;76.20;;;;;;2090995;28;20060;-82
2021/03/28 02:31:03;;;;;;;3.08;0.98;;;6.40;76.20;;;;;;2090918;28;20009;-82
2021/03/28 02:32:20;;;;;;;3.22;1.00;;;6.40;76.30;;;;;;2090482;28;20482;-82
2021/03/28 02:33:32;;;;;;;5.00;1.33;;;6.40;76.30;;;;;;2081662;28;20022;-83
2021/03/28 02:34:52;;;;;;;3.42;1.10;;;6.40;76.40;;;;;;2083019;28;20044;-82
2021/03/28 02:36:23;;;;;;;4.35;1.10;;;6.40;76.40;;;;;;2084410;28;20070;-82
2021/03/28 02:37:44;;;;;;;4.18;1.10;;;6.40;76.40;;;;;;2079991;28;20049;-82
2021/03/28 02:39:22;;;;;;;4.63;1.38;;;6.40;76.40;;;;;;2075937;28;20458;-83
2021/03/28 02:40:40;;;;;;;4.47;1.20;;;6.50;76.50;;;;;;2079711;28;20041;-83
2021/03/28 02:42:02;;;;;;;4.55;1.20;;;6.40;76.40;;;;;;2078682;28;20033;-82
2021/03/28 02:43:24;;;;;;;2.17;0.85;;;6.40;76.50;;;;;;2080609;28;20051;-82
2021/03/28 02:44:36;;;;;;;3.92;1.10;;;6.40;76.50;;;;;;2084171;28;20031;-83
2021/03/28 02:45:44;;;;;;;4.45;1.10;;;6.40;76.60;;;;;;2081159;28;20025;-83
2021/03/28 02:46:48;;;;;;;3.72;1.00;;;6.40;76.60;;;;;;2085037;28;20494;-83
2021/03/28 02:48:14;;;;;;;4.35;1.20;;;6.40;76.70;;;;;;2087697;28;20068;-82
2021/03/28 02:49:54;;;;;;;4.07;1.20;;;6.40;76.80;;;;;;2089373;28;20102;-83
2021/03/28 02:51:08;;;;;;;4.63;1.15;;;6.40;76.80;;;;;;2061728;28;20038;-82
2021/03/28 02:52:48;;;;;;;4.85;1.17;;;6.40;76.80;;;;;;2083461;28;20025;-82
2021/03/28 02:54:24;;;;;;;5.72;1.52;;;6.40;76.80;;;;;;2081461;28;20535;-83
2021/03/28 02:55:47;;;;;;;4.93;1.00;;;6.40;76.80;;;;;;2081819;28;20041;-82
2021/03/28 02:56:53;;;;;;;4.43;1.15;;;6.40;76.90;;;;;;2084556;28;20021;-82
2021/03/28 02:58:03;;;;;;;3.45;0.98;;;6.40;76.90;;;;;;2079045;28;20139;-82
2021/03/28 02:59:24;;;;;;;3.28;1.00;;;6.40;77.00;;;;;;2073905;28;20415;-83
2021/03/28 03:00:24;;;;;;;5.75;1.30;;;6.40;77.00;;;;;;2081046;28;20024;-82
2021/03/28 03:01:55;;;;;;;3.60;1.00;;;6.40;77.10;;;;;;2081004;28;20116;-82
2021/03/28 03:02:58;;;;;;;4.15;0.88;;;6.40;77.20;;;;;;2081746;28;20036;-83
2021/03/28 03:04:17;;;;;;;2.50;0.85;;;6.40;77.10;;;;;;2081068;28;20120;-82
2021/03/28 03:05:28;;;;;;;6.85;1.55;;;6.40;77.20;;;;;;2081273;28;20466;-82
2021/03/28 03:07:01;;;;;;;3.30;0.90;;;6.40;77.20;;;;;;2078765;28;20068;-82
2021/03/28 03:08:09;;;;;;;6.68;1.20;;;6.50;77.20;;;;;;2080448;28;20022;-82
2021/03/28 03:09:22;;;;;;;3.17;0.98;;;6.50;77.30;;;;;;2082195;28;20037;-82
2021/03/28 03:10:59;;;;;;;4.30;1.10;;;6.50;77.30;;;;;;2080994;28;20136;-83
2021/03/28 03:12:33;;;;;;;4.03;1.00;;;6.50;77.30;;;;;;2085744;28;20043;-83
2021/03/28 03:13:56;;;;;;;4.68;0.93;;;6.50;77.30;;;;;;2081527;28;20040;-83
2021/03/28 03:15:03;;;;;;;3.33;1.35;;;6.50;77.30;;;;;;2079299;28;20059;-82
2021/03/28 03:16:17;;;;;;;4.53;0.98;;;6.50;77.30;;;;;;2081165;28;20030;-83
2021/03/28 03:17:36;;;;;;;2.53;0.77;;;6.50;77.40;;;;;;2088419;28;20017;-83
2021/03/28 03:19:10;;;;;;;3.90;0.75;;;6.50;77.40;;;;;;2089227;28;20037;-83
2021/03/28 03:20:38;;;;;;;3.25;0.80;;;6.50;77.40;;;;;;2080535;28;20033;-82
2021/03/28 03:21:48;;;;;;;4.18;1.05;;;6.50;77.50;;;;;;2078217;28;20037;-82
2021/03/28 03:23:04;;;;;;;5.43;1.17;;;6.50;77.50;;;;;;2089203;28;20041;-82
2021/03/28 03:24:37;;;;;;;3.95;0.98;;;6.50;77.50;;;;;;2085105;28;20049;-83
2021/03/28 03:26:16;;;;;;;6.32;1.10;;;6.50;77.50;;;;;;2086902;28;20037;-82
2021/03/28 03:27:48;;;;;;;4.15;0.90;;;6.50;77.60;;;;;;2080210;28;20431;-83
2021/03/28 03:28:57;;;;;;;3.80;1.00;;;6.50;77.50;;;;;;2080851;28;20026;-82
2021/03/28 03:30:18;;;;;;;5.18;1.30;;;6.50;77.60;;;;;;2081056;28;20033;-83
2021/03/28 03:31:47;;;;;;;4.20;1.10;;;6.50;77.60;;;;;;2083088;28;20115;-83
2021/03/28 03:32:52;;;;;;;6.93;1.38;;;6.50;77.60;;;;;;2076760;28;20555;-83
2021/03/28 03:34:19;;;;;;;2.70;0.98;;;6.50;77.60;;;;;;2073449;28;20030;-83
2021/03/28 03:35:56;;;;;;;4.68;1.00;;;6.50;77.70;;;;;;2075248;28;20422;-83
2021/03/28 03:37:34;;;;;;;3.65;1.00;;;6.50;77.70;;;;;;2085815;28;20017;-83
2021/03/28 03:38:55;;;;;;;6.07;1.10;;;6.50;77.70;;;;;;2080875;28;20042;-83
2021/03/28 03:40:26;;;;;;;3.53;1.10;;;6.50;77.70;;;;;;2075461;28;20029;-83
2021/03/28 03:41:51;;;;;;;4.82;1.48;;;6.50;77.80;;;;;;2076116;28;20033;-82
2021/03/28 03:43:03;;;;;;;3.85;0.90;;;6.50;77.80;;;;;;2075677;28;20140;-83
2021/03/28 03:44:49;;;;;;;3.50;1.00;;;6.40;77.80;;;;;;2079126;28;20084;-84
2021/03/28 03:46:01;;;;;;;4.93;1.20;;;6.40;77.90;;;;;;2086398;28;20506;-83
2021/03/28 03:47:23;;;;;;;6.05;1.30;;;6.40;77.90;;;;;;2080336;28;20024;-82
2021/03/28 03:48:29;;;;;;;4.25;1.02;;;6.40;78.00;;;;;;2081414;28;21863;-83
2021/03/28 03:50:06;;;;;;;4.28;1.10;;;6.40;78.00;;;;;;2080931;28;20032;-83
2021/03/28 03:51:33;;;;;;;3.88;1.08;;;6.40;78.10;;;;;;2082389;28;20171;-83
2021/03/28 03:53:07;;;;;;;4.32;1.10;;;6.40;78.10;;;;;;2081854;28;20201;-83
2021/03/28 03:54:24;;;;;;;2.97;1.10;;;6.40;78.10;;;;;;2078165;28;20435;-82
2021/03/28 03:55:41;;;;;;;4.40;1.00;;;6.40;78.10;;;;;;2074802;28;20022;-82
2021/03/28 03:56:44;;;;;;;3.08;0.90;;;6.40;78.10;;;;;;2074772;28;20041;-83
2021/03/28 03:57:50;;;;;;;4.50;1.00;;;6.40;78.10;;;;;;2072632;28;20117;-82
2021/03/28 03:58:57;;;;;;;4.43;0.95;;;6.50;78.20;;;;;;2080607;28;20044;-82
2021/03/28 04:00:21;;;;;;;5.10;1.13;;;6.50;78.20;;;;;;2080696;28;20029;-82
2021/03/28 04:01:28;;;;;;;5.45;1.35;;;6.50;78.30;;;;;;2077185;28;20041;-83
2021/03/28 04:02:52;;;;;;;3.47;1.13;;;6.50;78.20;;;;;;2085599;28;20037;-83
2021/03/28 04:04:25;;;;;;;3.97;0.90;;;6.50;78.20;;;;;;2081232;28;20037;-82
2021/03/28 04:05:56;;;;;;;5.75;1.17;;;6.60;78.20;;;;;;2088862;28;20025;-82
2021/03/28 04:07:18;;;;;;;4.45;1.15;;;6.60;78.20;;;;;;2084686;28;20160;-83
2021/03/28 04:08:49;;;;;;;6.22;1.63;;;6.60;78.10;;;;;;2079468;28;20045;-82
2021/03/28 04:10:13;;;;;;;3.70;1.20;;;6.60;78.10;;;;;;2084814;28;20029;-83
2021/03/28 04:11:48;;;;;;;3.17;0.98;;;6.60;78.00;;;;;;2085423;28;20062;-83
2021/03/28 04:13:40;;;;;;;4.18;1.13;;;6.60;78.00;;;;;;2092729;28;20036;-82
2021/03/28 04:15:04;;;;;;;3.15;1.00;;;6.60;77.90;;;;;;2091352;28;20053;-81
2021/03/28 04:16:28;;;;;;;2.83;0.98;;;6.60;77.90;;;;;;2093023;28;20017;-82
2021/03/28 04:17:57;;;;;;;5.70;0.88;;;6.60;77.90;;;;;;2080242;28;20510;-82
2021/03/28 04:19:20;;;;;;;4.40;1.08;;;6.60;77.90;;;;;;2080945;28;20029;-83
2021/03/28 04:20:38;;;;;;;6.35;1.17;;;6.70;78.00;;;;;;2080712;28;20064;-82
2021/03/28 04:22:30;;;;;;;3.58;1.10;;;6.70;78.00;;;;;;2080124;28;20076;-82
2021/03/28 04:23:55;;;;;;;5.03;1.30;;;6.70;78.00;;;;;;2061149;28;20403;-83
2021/03/28 04:25:14;;;;;;;2.92;1.10;;;6.70;77.90;;;;;;2085392;28;20037;-83
2021/03/28 04:26:42;;;;;;;5.25;1.40;;;6.70;77.80;;;;;;2081314;28;20418;-82
2021/03/28 04:28:01;;;;;;;6.45;1.30;;;6.70;77.90;;;;;;2086304;28;20487;-82
2021/03/28 04:29:09;;;;;;;4.60;1.40;;;6.70;77.90;;;;;;2078981;28;20030;-81
2021/03/28 04:30:41;;;;;;;5.43;1.40;;;6.70;77.90;;;;;;2084954;28;20025;-82
2021/03/28 04:32:13;;;;;;;3.40;1.05;;;6.70;78.00;;;;;;2075622;28;20140;-81
2021/03/28 04:33:36;;;;;;;3.42;0.88;;;6.70;78.10;;;;;;2088837;28;20132;-82
2021/03/28 04:34:57;;;;;;;3.72;1.30;;;6.70;78.00;;;;;;2084652;28;20057;-82
2021/03/28 04:36:02;;;;;;;;;;;6.70;78.00;;;;;;2081779;28;20067;-82
2021/03/28 04:37:33;;;;;;;4.53;1.05;;;6.70;78.00;;;;;;2078947;28;19920;-82
2021/03/28 04:39:08;;;;;;;4.22;1.23;;;6.70;77.90;;;;;;2083182;28;20033;-83
2021/03/28 04:40:14;;;;;;;5.00;1.10;;;6.70;77.90;;;;;;2086404;28;20039;-82
2021/03/28 04:41:33;;;;;;;3.70;1.23;;;6.70;77.90;;;;;;2083340;28;20025;-81
2021/03/28 04:42:52;;;;;;;4.60;1.20;;;6.70;77.90;;;;;;2081756;28;20431;-83
2021/03/28 04:44:19;;;;;;;3.28;1.10;;;6.70;78.00;;;;;;2083876;28;20025;-82
2021/03/28 04:45:48;;;;;;;5.70;1.00;;;6.80;78.10;;;;;;2076358;28;20034;-82
2021/03/28 04:47:12;;;;;;;4.75;1.20;;;6.80;78.10;;;;;;2091956;28;20033;-82
2021/03/28 04:49:04;;;;;;;3.97;1.10;;;6.70;78.10;;;;;;2090430;28;20128;-82
2021/03/28 04:50:23;;;;;;;;;;;6.80;78.20;;;;;;2058152;28;20113;-82
2021/03/28 04:51:27;;;;;;;2.45;0.75;;;6.80;78.10;;;;;;2089844;28;19913;-82
2021/03/28 04:52:57;;;;;;;3.22;0.90;;;6.70;78.00;;;;;;2086651;28;20098;-82
2021/03/28 04:54:11;;;;;;;3.22;1.10;;;6.70;78.00;;;;;;2093403;28;20074;-82
2021/03/28 04:55:38;;;;;;;3.88;0.98;;;6.70;78.10;;;;;;2088756;28;20046;-82
2021/03/28 04:57:01;;;;;;;3.10;0.85;;;6.70;78.10;;;;;;2085987;28;20501;-82
2021/03/28 04:58:16;;;;;;;1.80;0.70;;;6.70;78.20;;;;;;2089945;28;20435;-82
2021/03/28 04:59:30;;;;;;;3.95;1.13;;;6.70;78.20;;;;;;2082836;28;20442;-82
2021/03/28 05:01:08;;;;;;;3.45;1.10;;;6.70;78.20;;;;;;2081543;28;20877;-82
2021/03/28 05:02:26;;;;;;;2.78;1.00;;;6.70;78.30;;;;;;2081940;28;20040;-82
2021/03/28 05:03:35;;;;;;;2.03;0.80;;;6.70;78.40;;;;;;2082213;28;20495;-82
2021/03/28 05:05:02;;;;;;;3.13;0.90;;;6.70;78.50;;;;;;2082689;28;20056;-83
2021/03/28 05:06:17;;;;;;;3.58;0.90;;;6.70;78.50;;;;;;2082197;28;20500;-82
2021/03/28 05:07:50;;;;;;;4.78;0.95;;;6.70;78.50;;;;;;2081768;28;20455;-82
2021/03/28 05:09:24;;;;;;;3.35;1.08;;;6.70;78.60;;;;;;2085889;28;20024;-82
2021/03/28 05:10:43;;;;;;;4.28;1.13;;;6.70;78.60;;;;;;2077825;28;20037;-82
2021/03/28 05:11:58;;;;;;;4.25;1.30;;;6.70;78.50;;;;;;2079727;28;20419;-82
2021/03/28 05:13:14;;;;;;;5.25;1.33;;;6.70;78.60;;;;;;2078918;28;20053;-82
2021/03/28 05:14:29;;;;;;;5.25;1.10;;;6.70;78.60;;;;;;2075583;28;20515;-83
2021/03/28 05:15:33;;;;;;;3.08;0.90;;;6.70;78.60;;;;;;2076922;28;20033;-82
2021/03/28 05:17:03;;;;;;;4.03;1.45;;;6.70;78.60;;;;;;2075362;28;20022;-81
2021/03/28 05:18:46;;;;;;;4.80;1.38;;;6.70;78.70;;;;;;2086106;28;20585;-82
2021/03/28 05:20:08;;;;;;;3.90;1.10;;;6.70;78.70;;;;;;2081646;28;20057;-82
2021/03/28 05:21:15;;;;;;;6.55;1.10;;;6.70;78.70;;;;;;2083352;28;20033;-82
2021/03/28 05:22:42;;;;;;;3.80;1.10;;;6.70;78.70;;;;;;2082512;28;20471;-82
2021/03/28 05:23:57;;;;;;;4.65;1.20;;;6.80;78.80;;;;;;2086561;28;20051;-82
2021/03/28 05:25:06;;;;;;;4.68;0.90;;;6.70;78.60;;;;;;2084604;28;20033;-82
2021/03/28 05:26:37;;;;;;;3.53;0.93;;;6.80;78.70;;;;;;2081391;28;20531;-82
2021/03/28 05:27:59;;;;;;;3.35;0.98;;;6.80;78.70;;;;;;2084855;28;20040;-82
2021/03/28 05:29:24;;;;;;;3.42;0.82;;;6.80;78.60;;;;;;2084765;28;20053;-82
2021/03/28 05:30:56;;;;;;;3.78;0.85;;;6.80;78.70;;;;;;2082729;28;20033;-82
2021/03/28 05:32:02;;;;;;;4.00;1.13;;;6.80;78.60;;;;;;2090130;28;20087;-82
2021/03/28 05:33:20;;;;;;;3.28;0.93;;;6.80;78.60;;;;;;2086286;28;20036;-82
2021/03/28 05:34:54;;;;;;;4.95;0.90;;;6.80;78.60;;;;;;2083863;28;20029;-82
2021/03/28 05:36:07;;;;;;;3.22;1.13;;;6.80;78.60;;;;;;2081953;28;20112;-82
2021/03/28 05:37:33;;;;;;;2.90;0.88;;;6.90;78.70;;;;;;2082296;28;20022;-82
2021/03/28 05:39:08;;;;;;;4.22;0.90;;;6.90;78.70;;;;;;2069968;28;20030;-83
2021/03/28 05:40:11;;;;;;;2.40;0.80;;;6.90;78.70;;;;;;2085661;28;20041;-82
2021/03/28 05:41:34;;;;;;;4.65;1.10;;;6.90;78.70;;;;;;2082297;28;20037;-83
2021/03/28 05:42:58;;;;;;;3.10;1.00;;;6.90;78.70;;;;;;2082251;28;20033;-82
2021/03/28 05:44:19;;;;;;;3.88;0.98;;;6.90;78.70;;;;;;2078030;28;20033;-82
2021/03/28 05:45:51;;;;;;;4.95;1.00;;;6.90;78.70;;;;;;2080914;28;20017;-82
2021/03/28 05:47:23;;;;;;;4.95;1.10;;;6.90;78.70;;;;;;2077054;28;20037;-82
2021/03/28 05:48:50;;;;;;;3.17;1.00;;;6.90;78.60;;;;;;2079529;28;20045;-82
2021/03/28 05:50:00;;;;;;;2.67;0.68;;;7.00;78.70;;;;;;2085113;28;20029;-83
2021/03/28 05:51:27;;;;;;;4.13;1.17;;;7.00;78.70;;;;;;2082047;28;20151;-82
2021/03/28 05:52:49;;;;;;;2.10;0.80;;;7.00;78.60;;;;;;2085099;28;20434;-82
2021/03/28 05:54:27;;;;;;;3.55;1.00;;;7.00;78.60;;;;;;2083761;28;20365;-82
2021/03/28 05:55:46;;;;;;;4.18;1.20;;;7.00;78.60;;;;;;2082349;28;20036;-82
2021/03/28 05:57:23;;;;;;;4.78;1.17;;;7.00;78.50;;;;;;2080831;28;20048;-81
2021/03/28 05:59:00;;;;;;;4.32;0.90;;;7.10;78.50;;;;;;2081318;28;20116;-83
2021/03/28 06:00:19;;;;;;;3.40;1.00;;;7.10;78.40;;;;;;2078608;28;20022;-82
2021/03/28 06:01:23;;;;;;;6.82;1.10;;;7.10;78.40;;;;;;2091317;28;20414;-82
2021/03/28 06:02:44;;;;;;;4.07;1.15;;;7.10;78.40;;;;;;2089454;28;20542;-83
2021/03/28 06:04:22;;;;;;;5.90;1.27;;;7.20;78.40;;;;;;2081660;28;20083;-82
2021/03/28 06:05:50;;;;;;;2.72;1.05;;;7.20;78.40;;;;;;2085326;28;20126;-83
2021/03/28 06:07:28;;;;;;;2.97;1.10;;;7.20;78.30;;;;;;2086071;28;20483;-82
2021/03/28 06:09:00;;;;;;;2.90;0.75;;;7.20;78.50;;;;;;2087293;28;20041;-83
2021/03/28 06:10:33;;;;;;;4.38;1.08;;;7.30;78.20;;;;;;2080659;28;20498;-83
2021/03/28 06:12:10;;;;;;;2.88;0.88;;;7.30;78.20;;;;;;2051433;28;20521;-83
2021/03/28 06:13:44;;;;;;;3.75;1.35;;;7.30;78.10;;;;;;2091567;28;20036;-84
2021/03/28 06:15:02;;;;;;;3.15;0.90;;;7.40;78.10;;;;;;2087334;28;20039;-83
2021/03/28 06:16:27;;;;;;;5.60;1.08;;;7.40;78.10;;;;;;2094004;28;20067;-82
2021/03/28 06:17:30;;;;;;;3.45;1.10;;;7.40;78.00;;;;;;2096482;28;20022;-83
2021/03/28 06:18:58;;;;;;;3.88;0.98;;;7.40;78.00;;;;;;2090986;28;20036;-82
2021/03/28 06:20:17;;;;;;;3.35;1.10;;;7.40;78.00;;;;;;2089913;28;20036;-82
2021/03/28 06:21:32;;;;;;;3.00;0.85;;;7.50;78.00;;;;;;2092063;28;20435;-82
2021/03/28 06:23:10;;;;;;;5.05;1.00;;;7.50;78.00;;;;;;2076946;28;20059;-82
2021/03/28 06:24:41;;;;;;;4.38;1.10;;;7.50;78.00;;;;;;2087207;28;20033;-82
2021/03/28 06:26:15;;;;;;;4.80;1.20;;;7.50;77.90;;;;;;2084471;28;20021;-85
2021/03/28 06:27:49;;;;;;;5.45;1.25;;;7.50;77.80;;;;;;2088525;28;20038;-84
2021/03/28 06:29:27;;;;;;;3.83;1.08;;;7.60;77.80;;;;;;2091418;28;20028;-82
2021/03/28 06:30:49;;;;;;;6.15;1.30;;;7.60;77.80;;;;;;2093629;28;20088;-83
2021/03/28 06:32:32;;;;;;;2.35;1.00;;;7.60;77.70;;;;;;2082796;28;20037;-84
2021/03/28 06:34:19;;;;;;;2.80;0.85;;;7.70;77.70;;;;;;2055821;28;20043;-85
2021/03/28 06:35:28;;;;;;;10.85;1.73;;;7.60;77.60;;;;;;2081323;28;20027;-84
2021/03/28 06:36:47;;;;;;;5.57;1.38;;;7.70;77.60;;;;;;2082688;28;20029;-84
2021/03/28 06:38:08;;;;;;;5.18;1.00;;;7.70;77.60;;;;;;2081321;28;20022;-84
2021/03/28 06:39:30;;;;;;;3.78;1.20;;;7.70;77.50;;;;;;2081052;28;20033;-84
2021/03/28 06:40:49;;;;;;;5.03;1.40;;;7.80;77.60;;;;;;2089482;28;20040;-85
2021/03/28 06:42:02;;;;;;;5.35;1.17;;;7.70;77.50;;;;;;2081655;28;20056;-84
2021/03/28 06:43:32;;;;;;;3.70;1.10;;;7.80;77.50;;;;;;2081277;28;20055;-83
2021/03/28 06:45:00;;;;;;;4.85;1.20;;;7.80;77.40;;;;;;2081444;28;20104;-84
2021/03/28 06:46:35;;;;;;;5.75;1.20;;;7.90;77.40;;;;;;2076699;28;20022;-83
2021/03/28 06:48:08;;;;;;;4.13;1.25;;;7.90;77.40;;;;;;2085205;28;20034;-82
2021/03/28 06:49:30;;;;;;;3.40;1.10;;;7.90;77.40;;;;;;2086950;28;20077;-83
2021/03/28 06:51:03;;;;;;;7.90;2.33;;;7.90;77.30;;;;;;2085367;28;20016;-81
2021/03/28 06:52:19;;;;;;;3.83;1.10;;;7.90;77.30;;;;;;2082973;28;20064;-83
2021/03/28 06:53:29;;;;;;;5.30;1.33;;;7.90;77.30;;;;;;2086951;28;20060;-83
2021/03/28 06:54:51;;;;;;;4.40;1.27;;;7.90;77.30;;;;;;2080821;28;20063;-83
2021/03/28 06:56:28;;;;;;;4.10;1.10;;;7.90;77.30;;;;;;2082323;28;20549;-82
2021/03/28 06:57:44;;;;;;;6.47;1.50;;;8.00;77.30;;;;;;2081489;28;20116;-82
2021/03/28 06:59:12;;;;;;;4.38;1.38;;;8.00;77.30;;;;;;2081085;28;20034;-82
2021/03/28 07:00:59;;;;;;;2.72;0.95;;;7.90;77.30;;;;;;2075514;28;20018;-82
2021/03/28 07:02:51;;;;;;;4.15;1.20;;;7.90;77.40;;;;;;2058703;28;20034;-82
2021/03/28 07:04:19;;;;;;;3.97;1.13;;;7.90;77.40;;;;;;2032183;29;20040;-82
2021/03/28 07:05:39;;;;;;;2.88;0.90;;;8.00;77.40;;;;;;2047490;29;20147;-82
2021/03/28 07:07:10;;;;;;;4.72;1.30;;;7.90;77.30;;;;;;2087468;28;20407;-82